パース の空港の天気 - METARとTAF

パース空港 ( YPPH / PER ) - オーストラリア 西オーストラリア州パース
飛行場実況気象(Metar)
観測時間06/25 21:00 AWST (06/25 13:00 UTC)
風向・風速北東 3m/s
視程10km以上
天気現象
なし
気温13℃
湿度67%
気圧1026hPa
METARYPPH 251300Z 05005KT CAVOK 13/07 Q1026 NOSIG
過去の天気等 Google飛行場航空写真 Wunderground天気予報

過去48時間のMETAR

飛行場予報(TAF)
発表時間: 6/25 18:58 AWST (6/25 10:58 UTC)
予報対象時間: 25日20時 AWST ~ 27日2時 AWST
風向・風速東北東 4m/s
視程10km以上
なし
26日11時 AWST から
風向・風速北 6m/s
視程10km以上
なし
27日0時 AWST から
風向・風速北 5m/s
視程10km以上
天気現象弱いしゅう雨
全天の8割程度の雲 雲底高度 910m
TAF YPPH 251058Z 2512/2618 06008KT CAVOK
FM260300 36012KT CAVOK
FM261600 35010KT 9999 -SHRA BKN030